Time;durP1;ratioP1;P1;durP2;ratioP2;P2;SDS_P1;SDS_P2;PMS_P1;PMS_P2;Temp;Humidity;BMP_temperature;BMP_pressure;BME280_temperature;BME280_humidity;BME280_pressure;Samples;Min_cycle;Max_cycle;Signal;HPM_P1;HPM_P2
2021/09/15 00:00:43;;;;;;;;;8.75;8.75;;;;;23.23;100.00;100782.53;5015915;28;45636;-70
2021/09/15 00:03:08;;;;;;;;;10.00;9.50;;;;;23.13;100.00;100767.28;5000034;28;45320;-71
2021/09/15 00:05:34;;;;;;;;;6.75;5.25;;;;;23.29;100.00;100783.94;5018150;28;45520;-71
2021/09/15 00:07:59;;;;;;;;;9.25;7.00;;;;;23.27;100.00;100779.66;5017907;28;45473;-71
2021/09/15 00:10:24;;;;;;;;;8.00;7.50;;;;;23.28;100.00;100784.88;5017930;28;45436;-71
2021/09/15 00:12:50;;;;;;;;;8.25;7.75;;;;;23.29;100.00;100772.41;5017592;28;45324;-71
2021/09/15 00:15:15;;;;;;;;;8.75;8.50;;;;;23.27;100.00;100771.66;5017236;28;45271;-71
2021/09/15 00:17:41;;;;;;;;;10.00;8.00;;;;;23.23;100.00;100763.03;5018143;28;45324;-71
2021/09/15 00:20:08;;;;;;;;;7.75;7.50;;;;;23.28;100.00;100771.56;5017428;28;46173;-70
2021/09/15 00:22:34;;;;;;;;;5.25;5.25;;;;;23.31;100.00;100774.06;5017450;28;45512;-70
2021/09/15 00:25:00;;;;;;;;;8.00;6.00;;;;;23.30;100.00;100776.78;5017461;28;45320;-70
2021/09/15 00:30:46;;;;;;;;;8.25;7.25;;;;;23.22;100.00;100761.31;5017213;28;45375;-71
2021/09/15 00:33:12;;;;;;;;;7.00;6.50;;;;;23.17;100.00;100755.44;5017202;28;45293;-70
2021/09/15 00:35:37;;;;;;;;;8.25;7.25;;;;;23.23;100.00;100769.22;5017539;28;45282;-70
2021/09/15 00:38:02;;;;;;;;;7.00;5.00;;;;;23.16;100.00;100749.28;5017498;28;45383;-71
2021/09/15 00:40:28;;;;;;;;;6.75;6.00;;;;;23.14;100.00;100756.50;4999366;28;47928;-71
2021/09/15 00:42:53;;;;;;;;;8.00;7.25;;;;;23.18;100.00;100758.00;5017404;28;45367;-70
2021/09/15 00:45:19;;;;;;;;;6.50;5.25;;;;;23.14;100.00;100755.66;5017181;28;45472;-70
2021/09/15 00:47:44;;;;;;;;;6.75;5.00;;;;;23.11;100.00;100748.72;5017446;28;45363;-71
2021/09/15 00:50:10;;;;;;;;;7.50;7.00;;;;;23.16;100.00;100757.25;5016994;28;46138;-70
2021/09/15 00:52:36;;;;;;;;;5.50;5.00;;;;;23.17;100.00;100756.31;5016972;28;45378;-70
2021/09/15 00:55:01;;;;;;;;;6.00;5.75;;;;;23.08;100.00;100740.91;5017161;28;45362;-71
2021/09/15 01:00:48;;;;;;;;;6.00;6.00;;;;;23.13;100.00;100756.63;5016703;28;45768;-70
2021/09/15 01:03:13;;;;;;;;;6.00;5.75;;;;;23.12;100.00;100758.44;5016838;28;45433;-70
2021/09/15 01:05:39;;;;;;;;;4.50;4.00;;;;;23.13;100.00;100762.81;5017245;28;45323;-70
2021/09/15 01:08:07;;;;;;;;;6.75;6.00;;;;;23.08;100.00;100756.03;5017477;28;45388;-71
2021/09/15 01:10:32;;;;;;;;;5.50;5.50;;;;;23.11;100.00;100766.53;5016772;28;46352;-71
2021/09/15 01:12:59;;;;;;;;;7.25;6.50;;;;;23.08;100.00;100750.72;5016713;28;45306;-71
2021/09/15 01:15:25;;;;;;;;;7.00;7.00;;;;;23.08;100.00;100748.06;5016933;28;45382;-71
2021/09/15 01:17:51;;;;;;;;;8.50;6.00;;;;;23.04;100.00;100744.75;5017164;28;45376;-71
2021/09/15 01:20:16;;;;;;;;;7.00;6.75;;;;;23.05;100.00;100751.78;5016770;28;47050;-71
2021/09/15 01:22:41;;;;;;;;;6.50;6.00;;;;;23.09;100.00;100760.44;5016912;28;45335;-71
2021/09/15 01:25:07;;;;;;;;;9.75;6.00;;;;;23.03;100.00;100752.84;5017145;28;45291;-71
2021/09/15 01:30:54;;;;;;;;;6.75;6.25;;;;;23.08;100.00;100753.38;5020246;28;45408;-71
2021/09/15 01:33:20;;;;;;;;;8.00;7.25;;;;;23.03;100.00;100737.72;5020123;28;45392;-71
2021/09/15 01:35:46;;;;;;;;;6.00;5.00;;;;;23.07;100.00;100741.03;5020055;28;45327;-71
2021/09/15 01:38:14;;;;;;;;;5.00;5.00;;;;;23.06;100.00;100741.97;5020661;28;45255;-70
2021/09/15 01:40:40;;;;;;;;;5.75;5.50;;;;;23.00;100.00;100743.25;5020297;28;45335;-71
2021/09/15 01:46:27;;;;;;;;;7.00;6.50;;;;;22.84;100.00;100722.09;5020010;28;45350;-72
2021/09/15 01:48:52;;;;;;;;;6.50;6.00;;;;;23.02;100.00;100743.13;5020234;28;45499;-71
2021/09/15 01:51:17;;;;;;;;;8.75;7.25;;;;;23.02;100.00;100743.13;5020057;28;45376;-71
2021/09/15 01:53:43;;;;;;;;;7.00;6.25;;;;;22.97;100.00;100740.78;5020067;28;45405;-71
2021/09/15 01:56:08;;;;;;;;;7.00;7.00;;;;;23.01;100.00;100744.94;5020221;28;45340;-70
2021/09/15 01:58:33;;;;;;;;;7.00;6.00;;;;;23.00;100.00;100742.38;5019728;28;45409;-70
2021/09/15 02:00:59;;;;;;;;;6.00;5.00;;;;;23.00;100.00;100753.91;5019476;28;46343;-70
2021/09/15 02:03:24;;;;;;;;;7.75;6.75;;;;;22.94;100.00;100746.31;5019984;28;45345;-70
2021/09/15 02:05:49;;;;;;;;;6.00;6.00;;;;;22.98;100.00;100750.47;5020053;28;45345;-70
2021/09/15 02:08:15;;;;;;;;;8.25;7.00;;;;;22.97;100.00;100747.91;5020062;28;45337;-70
2021/09/15 02:10:40;;;;;;;;;8.75;7.00;;;;;22.94;100.00;100753.44;5019464;28;46077;-71
2021/09/15 02:16:30;;;;;;;;;7.75;7.50;;;;;22.89;100.00;100765.25;5019414;28;45339;-70
2021/09/15 02:18:55;;;;;;;;;8.50;8.25;;;;;22.89;100.00;100761.75;5001880;28;45415;-70
2021/09/15 02:21:21;;;;;;;;;7.25;6.75;;;;;22.85;100.00;100763.72;5019222;28;46458;-71
2021/09/15 02:23:47;;;;;;;;;6.00;6.00;;;;;22.66;100.00;100744.56;5019330;28;45334;-71
2021/09/15 02:26:13;;;;;;;;;5.75;5.75;;;;;22.71;100.00;100753.09;5019404;28;45506;-71
2021/09/15 02:28:39;;;;;;;;;6.50;6.50;;;;;22.76;100.00;100758.13;5001728;28;45458;-71
2021/09/15 02:31:06;;;;;;;;;7.50;5.75;;;;;22.80;100.00;100768.47;5019014;28;46575;-70
2021/09/15 02:33:31;;;;;;;;;11.00;9.00;;;;;22.81;100.00;100764.00;5001729;28;45306;-70
2021/09/15 02:35:57;;;;;;;;;7.25;7.25;;;;;22.78;100.00;100758.88;5019275;28;45334;-71
2021/09/15 02:38:22;;;;;;;;;9.00;7.00;;;;;22.82;100.00;100763.09;5019493;28;45231;-70
2021/09/15 02:40:48;;;;;;;;;7.50;6.00;;;;;22.75;100.00;100749.28;5019129;28;45989;-70
2021/09/15 02:46:35;;;;;;;;;8.50;6.75;;;;;22.81;100.00;100759.56;5019081;28;45295;-71
2021/09/15 02:49:00;;;;;;;;;5.50;5.50;;;;;22.81;100.00;100754.25;5019294;28;45478;-71
2021/09/15 02:51:26;;;;;;;;;10.50;9.00;;;;;22.82;100.00;100766.59;5018939;28;45338;-71
2021/09/15 02:53:52;;;;;;;;;8.75;8.00;;;;;22.83;100.00;100778.09;5018913;28;45282;-71
2021/09/15 02:56:17;;;;;;;;;8.75;7.00;;;;;22.79;100.00;100771.25;5019283;28;45557;-71
2021/09/15 02:58:42;;;;;;;;;9.50;8.50;;;;;22.81;100.00;100772.00;5019061;28;45361;-71
2021/09/15 03:01:08;;;;;;;;;7.25;7.25;;;;;22.75;100.00;100769.72;5018755;28;45362;-71
2021/09/15 03:03:33;;;;;;;;;7.75;7.50;;;;;22.75;100.00;100765.25;5019060;28;45560;-70
2021/09/15 03:05:58;;;;;;;;;8.50;8.50;;;;;22.78;100.00;100767.72;5018758;28;45371;-70
2021/09/15 03:08:24;;;;;;;;;10.25;7.75;;;;;22.76;100.00;100766.13;5019217;28;45417;-70
2021/09/15 03:10:50;;;;;;;;;10.50;9.00;;;;;22.75;100.00;100759.09;5000770;28;47382;-70
2021/09/15 03:16:36;;;;;;;;;8.25;7.00;;;;;22.75;100.00;100764.41;5018684;28;45435;-71
2021/09/15 03:19:02;;;;;;;;;7.00;7.00;;;;;22.73;100.00;100761.84;5018577;28;45372;-71
2021/09/15 03:21:27;;;;;;;;;10.00;9.00;;;;;22.67;100.00;100759.59;5018468;28;47275;-71
2021/09/15 03:23:52;;;;;;;;;11.00;9.75;;;;;22.70;100.00;100764.72;5018725;28;45232;-71
2021/09/15 03:26:18;;;;;;;;;8.00;7.00;;;;;22.66;100.00;100754.38;5018754;28;45272;-71
2021/09/15 03:32:05;;;;;;;;;9.00;9.00;;;;;22.68;100.00;100760.44;5018133;28;45712;-70
2021/09/15 03:34:31;;;;;;;;;8.75;7.50;;;;;22.68;100.00;100755.97;5018464;28;45381;-70
2021/09/15 03:36:56;;;;;;;;;8.75;8.75;;;;;22.70;100.00;100762.06;5000471;28;45353;-71
2021/09/15 03:39:22;;;;;;;;;9.50;8.50;;;;;22.72;100.00;100769.94;5018709;28;45393;-70
2021/09/15 03:41:48;;;;;;;;;9.50;8.25;;;;;22.72;100.00;100765.47;5017797;28;46968;-71
2021/09/15 03:44:13;;;;;;;;;9.75;9.00;;;;;22.74;100.00;100770.69;5018462;28;45306;-71
2021/09/15 03:46:39;;;;;;;;;10.50;8.50;;;;;22.68;100.00;100763.97;5018438;28;45393;-71
2021/09/15 03:49:04;;;;;;;;;10.00;9.00;;;;;22.71;100.00;100774.41;5017489;28;45450;-71
2021/09/15 03:51:31;;;;;;;;;10.00;8.00;;;;;22.70;100.00;100778.03;5017942;28;46158;-70
2021/09/15 03:53:57;;;;;;;;;6.75;6.75;;;;;22.69;100.00;100775.47;5017791;28;45282;-70
2021/09/15 03:56:22;;;;;;;;;9.00;7.50;;;;;22.58;100.00;100773.47;5017985;28;45333;-70
2021/09/15 04:02:09;;;;;;;;;7.25;7.00;;;;;22.41;100.00;100779.03;5015914;28;45562;-70
2021/09/15 04:04:35;;;;;;;;;9.25;7.50;;;;;22.29;100.00;100768.19;5017482;28;45369;-70
2021/09/15 04:07:00;;;;;;;;;9.50;8.25;;;;;22.30;100.00;100775.22;5017734;28;45340;-70
2021/09/15 04:09:25;;;;;;;;;7.75;7.50;;;;;22.29;100.00;100775.31;5017985;28;45341;-71
2021/09/15 04:11:51;;;;;;;;;7.50;7.50;;;;;22.24;100.00;100780.94;4999547;28;48437;-70
2021/09/15 04:14:16;;;;;;;;;7.50;7.00;;;;;22.21;100.00;100778.47;5017522;28;45482;-70
2021/09/15 04:16:41;;;;;;;;;8.00;7.25;;;;;22.19;100.00;100782.16;5017444;28;45303;-70
2021/09/15 04:19:07;;;;;;;;;8.00;7.25;;;;;22.12;100.00;100781.66;5017988;28;45368;-70
2021/09/15 04:21:32;;;;;;;;;14.50;12.75;;;;;22.12;100.00;100780.81;5017381;28;46334;-70
2021/09/15 04:32:47;;;;;;;;;7.50;6.00;;;;;21.90;100.00;100762.63;5016976;28;45278;-69
2021/09/15 04:35:15;;;;;;;;;12.75;10.50;;;;;21.96;100.00;100780.88;5017077;28;45359;-69
2021/09/15 04:37:41;;;;;;;;;9.50;9.50;;;;;21.86;100.00;100774.41;5017304;28;45378;-69
2021/09/15 04:40:07;;;;;;;;;9.00;8.00;;;;;21.79;100.00;100775.72;5017488;28;45496;-70
2021/09/15 04:42:32;;;;;;;;;10.25;10.25;;;;;21.71;100.00;100779.69;5016998;28;46142;-70
2021/09/15 04:44:57;;;;;;;;;10.75;10.00;;;;;21.63;100.00;100773.13;5017408;28;45342;-70
2021/09/15 04:47:23;;;;;;;;;8.50;8.00;;;;;21.58;100.00;100764.59;5017244;28;45329;-70
2021/09/15 04:49:54;;;;;;;;;8.75;8.75;;;;;21.59;100.00;100776.91;5017510;28;45414;-70
2021/09/15 04:52:19;;;;;;;;;9.00;8.25;;;;;21.56;100.00;100769.13;5016817;28;45721;-70
2021/09/15 04:54:44;;;;;;;;;17.00;15.50;;;;;21.62;100.00;100788.22;5017310;28;45258;-70
2021/09/15 04:57:10;;;;;;;;;11.50;11.50;;;;;21.59;100.00;100779.56;5016819;28;45425;-70
2021/09/15 04:59:36;;;;;;;;;10.00;8.50;;;;;21.59;100.00;100783.09;5017335;28;45271;-70
2021/09/15 05:02:02;;;;;;;;;9.25;9.25;;;;;21.62;100.00;100792.69;5016397;28;46108;-71
2021/09/15 05:04:28;;;;;;;;;11.25;9.75;;;;;21.60;100.00;100786.59;5017003;28;45432;-70
2021/09/15 05:06:55;;;;;;;;;11.50;10.50;;;;;21.63;100.00;100789.06;5016833;28;45461;-70
2021/09/15 05:09:20;;;;;;;;;12.25;11.25;;;;;21.64;100.00;100791.63;5017143;28;45405;-70
2021/09/15 05:11:46;;;;;;;;;11.00;10.75;;;;;21.69;100.00;100799.31;5016601;28;45572;-70
2021/09/15 05:17:33;;;;;;;;;11.00;10.00;;;;;21.73;100.00;100798.22;5016513;28;45351;-70
2021/09/15 05:19:58;;;;;;;;;12.25;11.00;;;;;21.76;100.00;100794.53;5016618;28;45394;-69
2021/09/15 05:22:23;;;;;;;;;12.00;10.00;;;;;21.74;100.00;100785.78;5016270;28;47313;-69
2021/09/15 05:24:49;;;;;;;;;9.75;9.50;;;;;21.77;100.00;100785.59;5016621;28;45337;-70
2021/09/15 05:27:14;;;;;;;;;9.25;9.25;;;;;21.81;100.00;100790.63;5016309;28;45382;-70
2021/09/15 05:29:40;;;;;;;;;12.50;10.00;;;;;21.80;100.00;100796.03;5016620;28;45369;-71
2021/09/15 05:32:05;;;;;;;;;12.00;10.25;;;;;21.80;100.00;100802.22;5015724;28;47117;-69
2021/09/15 05:34:31;;;;;;;;;11.50;11.25;;;;;21.83;100.00;100799.38;5016391;28;45281;-68
2021/09/15 05:36:56;;;;;;;;;10.00;8.50;;;;;21.80;100.00;100793.38;5016333;28;45380;-69
2021/09/15 05:39:22;;;;;;;;;13.50;10.00;;;;;21.81;100.00;100803.94;5016777;28;45315;-68
2021/09/15 05:41:47;;;;;;;;;12.00;10.75;;;;;21.82;100.00;100799.47;5016445;28;45522;-67
2021/09/15 05:47:34;;;;;;;;;11.00;10.00;;;;;21.68;100.00;100786.97;5016161;28;45510;-67
2021/09/15 05:50:00;;;;;;;;;8.00;8.00;;;;;21.73;100.00;100807.97;5016888;28;45322;-69
2021/09/15 05:52:26;;;;;;;;;10.75;10.50;;;;;21.75;100.00;100814.06;5016237;28;45371;-69
2021/09/15 05:54:52;;;;;;;;;10.25;9.00;;;;;21.65;100.00;100805.78;5016176;28;45310;-69
2021/09/15 05:57:17;;;;;;;;;12.25;10.00;;;;;21.65;100.00;100808.44;5015935;28;45365;-68
2021/09/15 05:59:43;;;;;;;;;10.00;9.75;;;;;21.70;100.00;100819.63;5016481;28;45275;-69
2021/09/15 06:02:10;;;;;;;;;9.75;9.75;;;;;21.67;100.00;100815.38;5015710;28;46567;-69
2021/09/15 06:04:36;;;;;;;;;10.25;10.00;;;;;21.71;100.00;100824.84;5016130;28;45539;-69
2021/09/15 06:07:01;;;;;;;;;10.50;9.25;;;;;21.70;100.00;100823.16;5015859;28;45676;-70
2021/09/15 06:09:27;;;;;;;;;11.25;9.75;;;;;21.70;100.00;100812.53;5016122;28;45412;-70
2021/09/15 06:11:52;;;;;;;;;13.25;10.50;;;;;21.77;100.00;100830.78;4997983;28;47526;-69
2021/09/15 06:17:39;;;;;;;;;9.00;7.75;;;;;21.79;100.00;100823.56;5019351;28;45434;-70
2021/09/15 06:20:05;;;;;;;;;13.75;11.75;;;;;21.80;100.00;100828.78;5019674;28;45362;-70
2021/09/15 06:22:31;;;;;;;;;12.00;10.00;;;;;21.79;100.00;100826.22;5019132;28;46164;-69
2021/09/15 06:24:58;;;;;;;;;9.25;9.25;;;;;21.78;100.00;100835.16;5019155;28;45337;-69
2021/09/15 06:27:24;;;;;;;;;9.25;9.25;;;;;21.74;100.00;100825.66;5019218;28;45271;-68
2021/09/15 06:29:49;;;;;;;;;12.00;11.00;;;;;21.79;100.00;100826.22;5019603;28;45526;-69
2021/09/15 06:32:19;;;;;;;;;11.75;9.50;;;;;21.85;100.00;100834.69;5019090;28;45660;-69
2021/09/15 06:34:44;;;;;;;;;10.75;10.25;;;;;21.92;100.00;100840.47;5018979;28;45551;-70
2021/09/15 06:37:10;;;;;;;;;9.50;9.00;;;;;21.95;100.00;100838.53;5019486;28;45357;-69
2021/09/15 06:39:35;;;;;;;;;9.75;9.25;;;;;21.94;100.00;100830.59;5019254;28;45421;-69
2021/09/15 06:42:01;;;;;;;;;9.25;7.75;;;;;22.02;100.00;100841.66;5019234;28;46298;-69
2021/09/15 06:47:47;;;;;;;;;8.25;8.25;;;;;22.04;100.00;100847.78;5018916;28;45267;-69
2021/09/15 06:50:14;;;;;;;;;10.75;10.00;;;;;22.04;100.00;100846.88;5019283;28;45273;-69
2021/09/15 06:52:40;;;;;;;;;8.75;8.50;;;;;22.00;100.00;100843.56;5018751;28;47592;-71
2021/09/15 06:55:07;;;;;;;;;10.25;9.75;;;;;22.05;100.00;100856.59;5018570;28;45338;-69
2021/09/15 06:57:32;;;;;;;;;10.50;9.75;;;;;22.06;100.00;100848.53;5018966;28;45449;-71
2021/09/15 06:59:58;;;;;;;;;14.75;13.00;;;;;22.12;100.00;100855.28;5019526;28;45310;-70
2021/09/15 07:02:26;;;;;;;;;13.00;11.00;;;;;22.12;100.00;100853.47;5018532;28;46380;-69
2021/09/15 07:04:52;;;;;;;;;12.00;9.00;;;;;22.14;100.00;100848.06;5019168;28;45304;-71
2021/09/15 07:07:18;;;;;;;;;10.00;8.50;;;;;22.22;100.00;100851.13;5018880;28;45287;-70
2021/09/15 07:09:43;;;;;;;;;9.50;9.00;;;;;22.22;100.00;100853.78;5018711;28;45282;-70
2021/09/15 07:12:09;;;;;;;;;11.25;10.00;;;;;22.27;100.00;100860.53;5018621;28;46536;-70
2021/09/15 07:17:56;;;;;;;;;10.00;9.50;;;;;22.31;100.00;100856.72;5018355;28;45429;-70
2021/09/15 07:20:22;;;;;;;;;10.75;9.75;;;;;22.42;100.00;100868.53;5018767;28;45207;-70
2021/09/15 07:22:47;;;;;;;;;11.75;10.00;;;;;22.44;100.00;100869.28;5018217;28;46403;-70
2021/09/15 07:25:13;;;;;;;;;12.25;9.25;;;;;22.45;100.00;100871.00;5017460;28;45438;-70
2021/09/15 07:27:40;;;;;;;;;11.75;10.50;;;;;22.45;100.00;100878.97;5018308;28;45448;-70
2021/09/15 07:30:07;;;;;;;;;11.25;10.25;;;;;22.44;100.00;100874.63;5018663;28;45441;-70
2021/09/15 07:32:32;;;;;;;;;13.50;11.00;;;;;22.39;100.00;100872.22;5017973;28;46508;-70
2021/09/15 07:34:57;;;;;;;;;11.75;9.25;;;;;22.40;100.00;100884.56;5018600;28;45363;-70
2021/09/15 07:37:23;;;;;;;;;9.75;9.25;;;;;22.37;100.00;100876.78;5018320;28;45459;-70
2021/09/15 07:39:48;;;;;;;;;15.25;12.00;;;;;22.38;100.00;100877.63;5018276;28;45539;-70
2021/09/15 07:42:14;;;;;;;;;12.00;11.25;;;;;22.35;100.00;100869.84;5018226;28;46165;-69
2021/09/15 07:48:00;;;;;;;;;13.25;11.75;;;;;22.46;100.00;100880.69;5018135;28;45334;-70
2021/09/15 07:50:26;;;;;;;;;11.25;11.00;;;;;22.47;100.00;100877.94;5017978;28;45349;-70
2021/09/15 07:52:51;;;;;;;;;13.75;12.00;;;;;22.56;100.00;100876.50;5017815;28;46600;-70
2021/09/15 07:55:16;;;;;;;;;13.00;13.00;;;;;22.65;100.00;100878.59;5018147;28;45259;-70
2021/09/15 07:57:43;;;;;;;;;13.25;13.00;;;;;22.79;100.00;100881.25;5017722;28;45420;-70
2021/09/15 08:00:09;;;;;;;;;13.00;11.75;;;;;22.85;100.00;100874.69;5018242;28;45326;-70
2021/09/15 08:02:35;;;;;;;;;16.50;12.75;;;;;23.05;100.00;100884.09;5017576;28;46117;-70
2021/09/15 08:05:00;;;;;;;;;12.25;12.00;;;;;23.19;100.00;100884.06;5017813;28;45244;-70
2021/09/15 08:07:26;;;;;;;;;13.50;12.50;;;;;23.26;100.00;100885.38;5017807;28;45326;-70
2021/09/15 08:09:51;;;;;;;;;11.75;11.00;;;;;23.33;100.00;100883.19;5018203;28;45337;-70
2021/09/15 08:12:16;;;;;;;;;12.75;12.25;;;;;23.30;100.00;100892.22;5017478;28;47515;-70
2021/09/15 08:18:04;;;;;;;;;15.50;14.50;;;;;23.09;100.00;100891.81;5017631;28;45415;-70
2021/09/15 08:20:30;;;;;;;;;13.00;11.25;;;;;23.05;100.00;100897.41;5017704;28;45310;-69
2021/09/15 08:22:55;;;;;;;;;12.50;12.50;;;;;22.89;100.00;100886.91;5017291;28;46725;-70
2021/09/15 08:25:21;;;;;;;;;17.00;14.00;;;;;22.80;100.00;100896.25;5017314;28;45271;-70
2021/09/15 08:27:46;;;;;;;;;14.00;12.00;;;;;22.72;100.00;100895.91;5017536;28;45244;-70
2021/09/15 08:33:33;;;;;;;;;14.75;13.75;;;;;22.53;100.00;100913.94;5017169;28;45538;-69
2021/09/15 08:35:58;;;;;;;;;14.00;11.75;;;;;22.40;100.00;100910.31;5017229;28;45523;-69
2021/09/15 08:38:24;;;;;;;;;16.75;14.50;;;;;22.37;100.00;100908.69;5017186;28;45643;-69
2021/09/15 08:40:53;;;;;;;;;13.00;13.00;;;;;22.33;100.00;100906.31;5017562;28;45299;-70
2021/09/15 08:43:19;;;;;;;;;16.75;16.50;;;;;22.33;100.00;100908.97;5017029;28;46709;-70
2021/09/15 08:45:44;;;;;;;;;18.50;14.50;;;;;22.33;100.00;100906.31;5017275;28;45459;-70
2021/09/15 08:48:10;;;;;;;;;16.50;14.50;;;;;22.43;100.00;100920.78;5017026;28;45349;-70
2021/09/15 08:50:36;;;;;;;;;15.50;15.00;;;;;22.44;100.00;100910.06;5017344;28;45295;-70
2021/09/15 08:53:01;;;;;;;;;17.50;16.50;;;;;22.49;100.00;100913.28;5016763;28;46924;-70
2021/09/15 08:55:27;;;;;;;;;15.50;12.75;;;;;22.56;100.00;100917.28;5017158;28;45377;-70
2021/09/15 08:57:53;;;;;;;;;18.00;15.25;;;;;22.53;100.00;100905.97;5017252;28;45321;-70
2021/09/15 09:03:41;;;;;;;;;15.50;15.50;;;;;22.64;100.00;100923.97;5014907;28;46664;-69
2021/09/15 09:06:21;;;;;;;;;15.75;14.50;;;;;22.73;100.00;100928.69;5016368;28;45427;-69
2021/09/15 09:08:52;;;;;;;;;14.75;14.00;;;;;22.74;100.00;100914.44;5016797;28;45270;-70
2021/09/15 09:11:20;;;;;;;;;16.50;14.50;;;;;22.88;100.00;100925.13;4999329;28;45525;-69
2021/09/15 09:13:53;;;;;;;;;14.50;13.25;;;;;23.00;100.00;100920.81;5016660;28;46485;-70
2021/09/15 09:16:22;;;;;;;;;16.25;15.50;;;;;23.10;100.00;100929.97;5016563;28;45520;-70
2021/09/15 09:19:05;;;;;;;;;16.25;15.50;;;;;23.15;100.00;100925.19;5017174;28;45286;-69
2021/09/15 09:21:34;;;;;;;;;16.25;15.25;;;;;23.23;100.00;100920.22;5016915;28;45479;-69
2021/09/15 09:24:06;;;;;;;;;18.25;16.00;;;;;23.30;100.00;100933.97;5016582;28;46382;-69
2021/09/15 09:26:50;;;;;;;;;18.50;15.75;;;;;23.23;100.00;100922.88;5016431;28;45311;-70
2021/09/15 09:29:27;;;;;;;;;18.00;15.00;;;;;23.27;100.00;100931.53;5016529;28;45388;-70
2021/09/15 09:32:15;;;;;;;;;15.00;14.75;;;;;23.23;100.00;100930.88;5017019;28;45364;-70
2021/09/15 09:34:42;;;;;;;;;18.50;17.00;;;;;23.22;100.00;100929.16;5016354;28;46586;-70
2021/09/15 09:37:09;;;;;;;;;19.50;16.50;;;;;23.18;100.00;100917.00;5016116;28;45344;-69
2021/09/15 09:39:45;;;;;;;;;20.00;18.00;;;;;23.23;100.00;100936.19;4998690;28;45330;-70
2021/09/15 09:42:22;;;;;;;;;21.00;18.50;;;;;23.22;100.00;100943.34;5016752;28;45329;-70
2021/09/15 09:44:49;;;;;;;;;12.00;11.25;;;;;23.15;100.00;100944.69;5016037;28;46276;-70
2021/09/15 09:47:23;;;;;;;;;17.75;15.75;;;;;23.02;100.00;100942.88;5017182;28;45422;-70
2021/09/15 09:50:05;;;;;;;;;19.50;19.25;;;;;22.97;100.00;100947.66;5020182;28;45387;-70
2021/09/15 09:52:53;;;;;;;;;18.25;17.50;;;;;22.77;100.00;100938.19;5020228;28;45299;-70
2021/09/15 09:55:20;;;;;;;;;16.50;16.50;;;;;22.78;100.00;100951.41;5019986;28;45637;-69
2021/09/15 09:57:51;;;;;;;;;12.50;11.00;;;;;22.69;100.00;100948.47;5019657;28;45450;-69
2021/09/15 10:00:17;;;;;;;;;12.00;12.00;;;;;22.63;100.00;100941.69;5019674;28;45251;-68
2021/09/15 10:02:42;;;;;;;;;14.00;13.25;;;;;22.62;100.00;100932.84;5019252;28;46426;-69
2021/09/15 10:05:08;;;;;;;;;16.00;14.50;;;;;22.74;100.00;100930.41;5019515;28;46494;-69
2021/09/15 10:07:37;;;;;;;;;14.50;11.75;;;;;22.93;100.00;100939.00;5019336;28;45289;-68
2021/09/15 10:10:03;;;;;;;;;11.50;10.75;;;;;23.09;100.00;100939.75;5020013;28;45366;-69
2021/09/15 10:12:30;;;;;;;;;9.00;8.50;;;;;23.28;100.00;100943.88;5019706;28;45299;-68
2021/09/15 10:14:59;;;;;;;;;9.50;8.00;;;;;23.44;100.00;100939.28;5019601;28;46330;-68
2021/09/15 10:17:29;;;;;;;;;11.75;10.50;;;;;23.58;100.00;100925.97;5019323;28;45426;-69
2021/09/15 10:19:56;;;;;;;;;12.25;11.25;;;;;23.76;100.00;100938.09;5019669;28;45241;-68
2021/09/15 10:22:35;;;;;;;;;18.50;15.75;;;;;23.89;100.00;100929.25;5019285;28;45463;-69
2021/09/15 10:25:04;;;;;;;;;14.50;11.00;;;;;24.04;100.00;100937.09;5019461;28;45507;-69
2021/09/15 10:27:50;;;;;;;;;19.50;17.25;;;;;24.13;100.00;100939.13;5019153;28;45547;-69
2021/09/15 10:30:16;;;;;;;;;19.50;16.50;;;;;24.13;100.00;100930.28;5019453;28;45441;-68
2021/09/15 10:32:46;;;;;;;;;17.00;17.00;;;;;24.27;100.00;100938.22;5019463;28;45196;-70
2021/09/15 10:35:12;;;;;;;;;18.00;15.75;;;;;24.32;100.00;100933.44;5019138;28;45481;-69
2021/09/15 10:37:40;;;;;;;;;12.75;12.00;;;;;24.50;100.00;100939.34;5019023;28;45350;-69
2021/09/15 10:40:09;;;;;;;;;15.25;14.75;;;;;24.71;100.00;100937.84;5019466;28;45279;-69
2021/09/15 10:42:48;;;;;;;;;15.25;13.25;;;;;25.07;100.00;100940.69;5019293;28;45360;-69
2021/09/15 10:45:18;;;;;;;;;11.00;11.00;;;;;25.68;100.00;100934.44;5018737;28;46340;-70
2021/09/15 10:47:44;;;;;;;;;11.75;11.25;;;;;26.41;100.00;100930.72;5019081;28;45326;-70
2021/09/15 10:50:32;;;;;;;;;11.75;10.50;;;;;27.11;100.00;100926.00;5018963;28;45384;-70
2021/09/15 10:53:07;;;;;;;;;12.25;12.00;;;;;28.01;100.00;100931.16;5019390;28;45430;-70
2021/09/15 10:55:59;;;;;;;;;58.25;44.25;;;;;29.15;100.00;100933.81;5018672;28;47339;-70
2021/09/15 10:58:28;;;;;;;;;21.25;20.00;;;;;29.92;100.00;100930.44;5014921;28;45416;-70
2021/09/15 11:00:56;;;;;;;;;16.75;15.50;;;;;30.15;100.00;100939.94;5018692;28;45350;-70
2021/09/15 11:03:38;;;;;;;;;9.00;8.25;;;;;30.15;100.00;100937.25;5018983;28;45328;-71
2021/09/15 11:06:06;;;;;;;;;10.75;9.25;;;;;31.23;100.00;100945.75;5018720;28;45342;-71
2021/09/15 11:08:36;;;;;;;;;9.25;9.25;;;;;33.47;100.00;100938.00;5018722;28;45479;-71
2021/09/15 11:11:06;;;;;;;;;9.25;8.00;;;;;33.87;100.00;100931.81;5018922;28;45381;-70
2021/09/15 11:17:02;;;;;;;;;7.00;6.25;;;;;33.26;100.00;100938.41;5018392;28;45386;-71
2021/09/15 11:19:30;;;;;;;;;11.50;9.75;;;;;33.08;100.00;100940.38;5018678;28;45392;-70
2021/09/15 11:21:58;;;;;;;;;8.25;8.00;;;;;32.51;100.00;100940.03;5018656;28;45291;-70
2021/09/15 11:24:27;;;;;;;;;10.00;9.00;;;;;31.91;100.00;100942.59;5018498;28;45363;-70
2021/09/15 11:27:00;;;;;;;;;9.00;9.00;;;;;31.30;100.00;100948.69;5018234;28;47018;-70
2021/09/15 11:32:47;;;;;;;;;8.00;7.75;;;;;30.35;100.00;100941.63;5018133;28;45385;-70
2021/09/15 11:35:12;;;;;;;;;12.75;12.50;;;;;30.18;100.00;100940.50;5018538;28;45236;-70
2021/09/15 11:37:37;;;;;;;;;12.25;11.00;;;;;29.87;100.00;100945.16;5017956;28;46258;-70
2021/09/15 11:40:05;;;;;;;;;7.50;7.00;;;;;29.52;100.00;100947.53;5018158;28;45264;-70
2021/09/15 11:42:35;;;;;;;;;8.25;8.00;;;;;29.16;100.00;100957.03;5018416;28;45377;-70
2021/09/15 11:48:27;;;;;;;;;5.00;5.00;;;;;28.60;100.00;100957.44;5018048;28;45736;-70
2021/09/15 11:50:53;;;;;;;;;6.75;6.75;;;;;28.54;100.00;100963.38;5018261;28;45481;-70
2021/09/15 11:53:19;;;;;;;;;6.75;6.00;;;;;28.44;100.00;100959.75;5018056;28;45313;-70
2021/09/15 11:55:50;;;;;;;;;9.25;8.00;;;;;28.37;100.00;100959.44;5018448;28;45357;-70
2021/09/15 11:58:17;;;;;;;;;8.00;7.00;;;;;28.25;100.00;100955.09;5016341;28;46194;-70
2021/09/15 12:04:09;;;;;;;;;7.00;7.00;;;;;27.57;100.00;100964.31;5016948;28;45403;-69
2021/09/15 12:06:35;;;;;;;;;7.50;6.50;;;;;27.18;100.00;100963.94;5018003;28;45307;-69
2021/09/15 12:09:02;;;;;;;;;8.25;7.50;;;;;27.03;100.00;100974.03;5017928;28;45498;-69
2021/09/15 12:11:39;;;;;;;;;9.50;7.25;;;;;26.90;100.00;100967.91;5016965;28;45295;-69
2021/09/15 12:14:09;;;;;;;;;8.75;8.00;;;;;26.78;100.00;100967.06;5017645;28;45322;-69
2021/09/15 12:16:37;;;;;;;;;15.50;12.00;;;;;26.65;100.00;100971.66;5018182;28;45449;-69
2021/09/15 12:19:12;;;;;;;;;18.75;15.50;;;;;26.53;100.00;100972.63;5017333;28;47365;-69
2021/09/15 12:21:42;;;;;;;;;15.00;14.00;;;;;26.48;100.00;100964.94;5017503;28;45298;-69
2021/09/15 12:24:08;;;;;;;;;21.25;19.75;;;;;26.51;100.00;100964.72;5017720;28;45335;-69
2021/09/15 12:26:34;;;;;;;;;20.75;20.25;;;;;26.63;100.00;100975.41;5017904;28;45403;-69
2021/09/15 12:29:11;;;;;;;;;18.00;17.00;;;;;26.66;100.00;100986.75;5017574;28;46556;-69
2021/09/15 12:31:49;;;;;;;;;18.00;16.00;;;;;26.60;100.00;100978.34;5017098;28;45410;-69